New Liberty, IL

6:38 PM CDT on May 22, 2015 (GMT -0500)
Paducah Ky | | Change Station
CLOSE
Current Station
Personal Weather Station
Location: Paducah, KY
Elevation: 0 ft
Nearby Weather Stations

Elev 0 ft 37.08 °N, 88.59 °W | Updated 1 second ago

Partly Cloudy
Partly Cloudy
68.5 °F
Feels Like 68.5 °F
N
0.0
Wind Variable Wind from NE
Gusts 0.0 mph

Today
High -- | Low -- °F
--% Chance of Precip.
Yesterday
High -- | Low -- °F
Precip. -- in
5:41 AM 8:01 PM
Waxing Crescent, 25% visible
Pressure 30.25 in
Visibility 10.0 miles
Clouds Clear
Dew Point 49 °F
Humidity 49%
Rainfall 0.00 in
Snow Depth Not available.
UV 1 out of 12
Pollen 7.60 out of 12
Air Quality Not available.
Flu Activity Sporadic
METAR KM30 222315Z AUTO 32004KT 10SM CLR 22/11 A3025 RMK AO2 T02200113

More Conditions Fewer Conditions

Pressure 30.25 in
Visibility 10.0 miles
Clouds Clear
Dew Point 49 °F
Humidity 49%
Rainfall 0.00 in
Snow Depth Not available.
UV 1 out of 12
Pollen 7.60 out of 12
Air Quality Not available.
Flu Activity Sporadic
METAR KM30 222315Z AUTO 32004KT 10SM CLR 22/11 A3025 RMK AO2 T02200113

More Conditions Fewer Conditions

10-Day Weather Forecast

Almanac

Astronomy

May. 22, 2015 Rise Set
Actual Time
Civil Twilight
Nautical Twilight
Astronomical Twilight
Moon
Length of Visible Light
Length of Day
Tomorrow will be .
, % of the Moon is Illuminated

Today's Extremes

State Highs State Lows

Community

WunderPhotos

Upload Photos

1,823,333 photos uploaded!

WunderBlogs® & News

Nearby

Air Quality

  Air Quality AQ Index Pollutant
Not available.

Snow Depth

Station Depth Elevation

Earthquake Activity

City Distance Mag. Time & Date
Minimum magnitude displayed is 2.5.

Coastal Water Temperatures

Place Temperature

Stations

Nearby Weather Stations

Station Location Temp. Windchill Dew Point Humidity Wind Precip. Elev Updated Type